EHKD/DHR METAR and TAF weather

Enter ICAO airport designator
Station Type Date Time Source
EHKD METAR 2018/07/19 07:25 UTC NOAA

EHKD 190725Z AUTO 01005KT 330V050 9999 FEW360 21/13 Q1019 BLU VRB03KT CAVOK BECMG 03005KT


Station Type Date Time Source
EHKD Decoded METAR 2018/07/19 07:25 UTC NOAA

De Kooy, Netherlands (EHKD) 52-55N 004-47E 14M
Jul 19, 2018 - 03:25 AM EDT / 2018.07.19 0725 UTC
Wind: from the N (010 degrees) at 6 MPH (5 KT) (direction variable):0
Visibility: greater than 7 mile(s):0
Sky conditions: mostly clear
Temperature: 69 F (21 C)
Dew Point: 55 F (13 C)
Relative Humidity: 60%
Pressure (altimeter): 30.09 in. Hg (1019 hPa)
ob: EHKD 190725Z AUTO 01005KT 330V050 9999 FEW360 21/13 Q1019 BLU VRB03KT CAVOK BECMG 03005KT
cycle: 7

Station Type Date Time Source
EHKD TAF 2018/07/19 05:06 UTC NOAA

TAF EHKD 190422Z 1905/1917 33003KT CAVOK
BECMG 1907/1910 04009KT


Example: see airport list